Terminal Aerodrome Forecast
Issued by NWS Riverton, WY

Home | Current Version | Previous Version | Text Only | Print | Product List | Glossary On
Versions: 1 2 3 4 5 6 7 8 9 10 11 12 13 14 15 16 17 18 19 20 21 22 23 24 25 26 27
000
FTUS45 KRIW 191700
TAFRIW
TAF
KRIW 191738Z 1918/2018 VRB04KT 5SM BR BKN002
     FM191900 VRB04KT 6SM BR FEW003 SCT200
     FM192200 30006KT P6SM SCT120 BKN200
     FM200200 29005KT 2SM BR BKN003
     FM200400 VRB04KT 1/2SM FG VV001=

USA.gov is the U.S. government's official web portal to all federal, state and local government web resources and services.